createdAt,value
2022-11-03T00:03:25.002Z,8.60
2022-11-03T00:10:07.779Z,8.60
2022-11-03T00:16:50.670Z,8.50
2022-11-03T00:23:38.362Z,8.40
2022-11-03T00:30:20.674Z,8.30
2022-11-03T00:37:03.181Z,8.40
2022-11-03T00:43:45.549Z,8.40
2022-11-03T00:50:27.923Z,8.40
2022-11-03T00:57:10.323Z,8.30
2022-11-03T01:04:15.869Z,8.30
2022-11-03T01:11:24.481Z,8.20
2022-11-03T01:18:06.814Z,8.10
2022-11-03T01:24:49.525Z,8.20
2022-11-03T01:31:31.942Z,8.10
2022-11-03T01:38:14.256Z,8.00
2022-11-03T01:44:56.581Z,7.90
2022-11-03T01:51:40.554Z,7.90
2022-11-03T01:58:27.760Z,7.80
2022-11-03T02:05:12.061Z,7.80
2022-11-03T02:12:06.411Z,7.70
2022-11-03T02:18:49.986Z,7.70
2022-11-03T02:25:50.981Z,7.60
2022-11-03T02:32:59.109Z,7.50
2022-11-03T02:39:46.180Z,7.40
2022-11-03T02:46:30.436Z,7.30
2022-11-03T02:53:14.215Z,7.30
2022-11-03T03:00:06.227Z,7.30
2022-11-03T03:06:59.366Z,7.30
2022-11-03T03:13:43.892Z,7.30
2022-11-03T03:20:37.603Z,7.20
2022-11-03T03:27:23.583Z,7.20
2022-11-03T03:34:16.919Z,7.00
2022-11-03T03:41:13.317Z,7.00
2022-11-03T03:47:57.620Z,7.00
2022-11-03T03:54:40.389Z,7.00
2022-11-03T04:01:22.838Z,7.00
2022-11-03T04:08:05.609Z,7.00
2022-11-03T04:15:06.708Z,7.00
2022-11-03T04:22:07.668Z,6.90
2022-11-03T04:28:52.000Z,6.80
2022-11-03T04:35:34.478Z,6.80
2022-11-03T04:42:21.761Z,6.80
2022-11-03T04:49:05.773Z,6.80
2022-11-03T04:55:50.884Z,6.70
2022-11-03T05:02:33.613Z,6.70
2022-11-03T05:09:20.778Z,6.80
2022-11-03T05:16:05.819Z,6.70
2022-11-03T05:22:48.156Z,6.70
2022-11-03T05:29:36.880Z,6.80
2022-11-03T05:36:22.180Z,6.80
2022-11-03T05:43:07.356Z,6.80
2022-11-03T05:50:00.730Z,6.80
2022-11-03T05:56:43.197Z,6.80
2022-11-03T06:03:29.165Z,6.80
2022-11-03T06:10:25.543Z,6.70
2022-11-03T06:17:28.594Z,6.70
2022-11-03T06:24:14.126Z,6.70
2022-11-03T06:30:56.839Z,6.80
2022-11-03T06:37:39.285Z,6.80
2022-11-03T06:44:29.055Z,7.00
2022-11-03T06:51:21.909Z,7.10
2022-11-03T06:58:26.405Z,7.10
2022-11-03T07:05:23.094Z,7.30
2022-11-03T07:12:14.981Z,7.70
2022-11-03T07:19:00.750Z,7.90
2022-11-03T07:25:50.510Z,8.10
2022-11-03T07:32:34.077Z,8.40
2022-11-03T07:39:19.295Z,9.00
2022-11-03T07:46:03.509Z,10.00
2022-11-03T07:52:45.904Z,11.70
2022-11-03T07:59:33.441Z,11.80
2022-11-03T08:06:18.848Z,12.10
2022-11-03T08:13:02.644Z,12.50
2022-11-03T08:19:45.041Z,12.70
2022-11-03T08:26:27.479Z,12.60
2022-11-03T08:33:10.135Z,13.10
2022-11-03T08:39:52.484Z,13.30
2022-11-03T08:46:35.184Z,13.70
2022-11-03T08:53:17.537Z,13.80
2022-11-03T08:59:59.984Z,14.30
2022-11-03T09:06:42.375Z,14.50
2022-11-03T09:13:24.925Z,15.50
2022-11-03T09:20:07.659Z,15.10
2022-11-03T09:26:49.969Z,15.20
2022-11-03T09:33:32.327Z,14.90
2022-11-03T09:40:17.632Z,15.10
2022-11-03T09:47:01.493Z,15.10
2022-11-03T09:53:45.169Z,14.60
2022-11-03T10:00:27.703Z,15.00
2022-11-03T10:07:10.161Z,14.90
2022-11-03T10:13:56.066Z,15.00
2022-11-03T10:20:38.392Z,14.30
2022-11-03T10:27:31.195Z,14.20
2022-11-03T10:34:34.123Z,13.80
2022-11-03T10:41:27.508Z,13.90
2022-11-03T10:48:39.001Z,14.10
2022-11-03T10:55:25.272Z,13.90
2022-11-03T11:02:18.972Z,14.00
2022-11-03T11:09:09.868Z,14.20
2022-11-03T11:16:00.634Z,14.50
2022-11-03T11:22:43.225Z,14.50
2022-11-03T11:29:36.174Z,14.60
2022-11-03T11:36:25.446Z,14.30
2022-11-03T11:43:11.036Z,14.10
2022-11-03T11:50:05.923Z,14.00
2022-11-03T11:56:49.847Z,14.20
2022-11-03T12:03:42.248Z,14.20
2022-11-03T12:10:27.497Z,14.20
2022-11-03T12:17:18.910Z,14.00
2022-11-03T12:24:01.363Z,13.90
2022-11-03T12:30:43.695Z,13.90
2022-11-03T12:37:26.067Z,13.90
2022-11-03T12:44:08.525Z,13.80
2022-11-03T12:50:50.954Z,13.70
2022-11-03T12:57:33.371Z,13.60
2022-11-03T13:04:15.710Z,13.70
2022-11-03T13:10:58.505Z,13.70
2022-11-03T13:18:07.254Z,13.90
2022-11-03T13:24:44.218Z,13.90
2022-11-03T13:31:27.054Z,13.90
2022-11-03T13:38:09.414Z,13.80
2022-11-03T13:44:51.958Z,13.90
2022-11-03T13:51:34.433Z,13.90
2022-11-03T14:05:19.568Z,14.20
2022-11-03T14:12:20.454Z,14.00
2022-11-03T14:19:02.913Z,13.90
2022-11-03T14:25:45.232Z,13.90
2022-11-03T14:32:27.621Z,13.70
2022-11-03T14:39:10.054Z,13.70
2022-11-03T14:45:52.767Z,13.70
2022-11-03T14:52:35.675Z,13.70
2022-11-03T14:59:18.648Z,13.60
2022-11-03T15:06:36.357Z,13.50
2022-11-03T15:13:18.682Z,13.50
2022-11-03T15:20:01.185Z,13.50
2022-11-03T15:26:43.610Z,13.50
2022-11-03T15:33:26.916Z,13.40
2022-11-03T15:40:14.964Z,13.40
2022-11-03T15:46:57.280Z,13.40
2022-11-03T15:53:40.166Z,13.30
2022-11-03T16:00:22.625Z,13.10
2022-11-03T16:07:08.850Z,13.10
2022-11-03T16:13:51.663Z,13.10
2022-11-03T16:20:33.997Z,13.10
2022-11-03T16:27:16.306Z,13.10
2022-11-03T16:33:59.372Z,13.00
2022-11-03T16:40:43.419Z,13.00
2022-11-03T16:47:27.017Z,13.00
2022-11-03T16:54:09.613Z,13.10
2022-11-03T17:00:52.119Z,13.00
2022-11-03T17:07:35.601Z,13.10
2022-11-03T17:14:18.155Z,13.20
2022-11-03T17:21:00.521Z,13.30
2022-11-03T17:27:55.272Z,13.60
2022-11-03T17:34:38.286Z,13.70
2022-11-03T17:41:21.054Z,13.80
2022-11-03T17:48:03.599Z,13.70
2022-11-03T17:54:46.141Z,13.70
2022-11-03T18:01:28.861Z,13.60
2022-11-03T18:08:12.401Z,13.50
2022-11-03T18:14:54.817Z,13.50
2022-11-03T18:21:37.867Z,13.60
2022-11-03T18:28:23.412Z,13.60
2022-11-03T18:35:07.124Z,13.60
2022-11-03T18:41:49.458Z,13.60
2022-11-03T18:48:31.833Z,13.60
2022-11-03T18:55:15.987Z,13.60
2022-11-03T19:01:58.977Z,13.60
2022-11-03T19:08:43.151Z,13.60
2022-11-03T19:15:25.935Z,13.60
2022-11-03T19:22:16.507Z,13.60
2022-11-03T19:29:03.977Z,13.50
2022-11-03T19:35:47.101Z,13.50
2022-11-03T19:42:33.021Z,13.50
2022-11-03T19:49:15.517Z,13.40
2022-11-03T19:55:58.276Z,13.40
2022-11-03T20:02:40.790Z,13.40
2022-11-03T20:09:26.109Z,13.00
2022-11-03T20:16:16.412Z,13.00
2022-11-03T20:23:00.179Z,13.10
2022-11-03T20:29:42.937Z,13.00
2022-11-03T20:36:26.361Z,12.90
2022-11-03T20:43:38.285Z,12.80
2022-11-03T20:50:21.589Z,12.80
2022-11-03T20:57:04.566Z,12.90
2022-11-03T21:04:02.594Z,12.90
2022-11-03T21:10:45.058Z,12.90
2022-11-03T21:17:46.000Z,12.90
2022-11-03T21:24:28.415Z,12.90
2022-11-03T21:31:13.238Z,12.80
2022-11-03T21:37:55.614Z,12.60
2022-11-03T21:44:38.137Z,12.50
2022-11-03T21:51:20.700Z,12.50
2022-11-03T21:58:04.185Z,12.40
2022-11-03T22:04:46.514Z,12.30
2022-11-03T22:11:28.862Z,12.30
2022-11-03T22:18:11.461Z,12.30
2022-11-03T22:25:12.387Z,12.20
2022-11-03T22:32:14.766Z,12.30
2022-11-03T22:39:15.785Z,12.30
2022-11-03T22:45:58.386Z,12.30
2022-11-03T22:52:40.784Z,12.40
2022-11-03T22:59:23.204Z,12.40
2022-11-03T23:06:08.109Z,12.40
2022-11-03T23:12:50.421Z,12.40
2022-11-03T23:19:51.332Z,12.40
2022-11-03T23:26:33.942Z,12.30
2022-11-03T23:33:16.342Z,12.20
2022-11-03T23:39:58.647Z,12.10
2022-11-03T23:47:00.420Z,12.20
2022-11-03T23:53:43.662Z,12.20
